Time;durP1;ratioP1;P1;durP2;ratioP2;P2;SDS_P1;SDS_P2;PMS_P1;PMS_P2;Temp;Humidity;BMP_temperature;BMP_pressure;BME280_temperature;BME280_humidity;BME280_pressure;Samples;Min_cycle;Max_cycle;Signal;HPM_P1;HPM_P2
2023/02/22 00:00:41;;;;;;;7.70;6.33;;;11.90;54.80;;;;;;5031438;28;20804;-48
2023/02/22 00:03:10;;;;;;;8.60;6.40;;;11.90;55.40;;;;;;5031518;28;20428;-50
2023/02/22 00:05:38;;;;;;;8.40;6.50;;;11.90;54.90;;;;;;5031464;28;20510;-53
2023/02/22 00:08:08;;;;;;;10.20;7.07;;;11.90;54.90;;;;;;5030685;28;20436;-49
2023/02/22 00:10:37;;;;;;;7.93;6.33;;;11.80;54.90;;;;;;5031120;28;20439;-49
2023/02/22 00:13:04;;;;;;;8.60;6.27;;;11.90;54.70;;;;;;5029378;28;20444;-48
2023/02/22 00:15:30;;;;;;;15.40;6.40;;;11.90;54.50;;;;;;5030862;28;21018;-48
2023/02/22 00:17:56;;;;;;;8.20;6.30;;;11.90;54.50;;;;;;5030712;28;20494;-50
2023/02/22 00:20:22;;;;;;;8.47;6.93;;;11.80;54.70;;;;;;5031211;28;20268;-52
2023/02/22 00:22:50;;;;;;;8.23;6.70;;;11.90;54.70;;;;;;5030833;28;20428;-49
2023/02/22 00:25:18;;;;;;;8.50;5.63;;;11.90;54.60;;;;;;5030925;28;20494;-51
2023/02/22 00:27:46;;;;;;;7.43;6.20;;;11.90;54.40;;;;;;5030309;28;20424;-52
2023/02/22 00:30:25;;;;;;;8.13;6.27;;;11.90;54.20;;;;;;5030613;28;20460;-52
2023/02/22 00:32:51;;;;;;;10.20;6.00;;;12.00;54.20;;;;;;5035675;28;20438;-52
2023/02/22 00:35:20;;;;;;;6.77;5.43;;;11.90;54.10;;;;;;5036716;28;20866;-48
2023/02/22 00:37:47;;;;;;;6.63;5.40;;;12.00;54.10;;;;;;5030312;28;20432;-49
2023/02/22 00:40:19;;;;;;;6.90;5.73;;;12.00;54.10;;;;;;5029013;28;20448;-52
2023/02/22 00:42:45;;;;;;;12.10;5.73;;;11.90;54.10;;;;;;5030712;28;20424;-50
2023/02/22 00:45:13;;;;;;;7.47;5.90;;;11.80;54.50;;;;;;5030660;28;20432;-52
2023/02/22 00:47:38;;;;;;;8.37;6.67;;;11.70;55.00;;;;;;5029554;28;20482;-49
2023/02/22 00:50:04;;;;;;;7.83;5.77;;;11.60;55.20;;;;;;5030615;28;20806;-49
2023/02/22 00:52:30;;;;;;;8.10;5.50;;;11.60;55.00;;;;;;5030726;28;20656;-51
2023/02/22 00:54:56;;;;;;;9.67;6.30;;;11.60;54.80;;;;;;5030348;28;20475;-49
2023/02/22 00:57:23;;;;;;;8.87;6.10;;;11.60;54.90;;;;;;5030219;28;20201;-48
2023/02/22 00:59:48;;;;;;;7.03;6.10;;;11.60;55.00;;;;;;5030464;28;20477;-50
2023/02/22 01:02:14;;;;;;;7.70;6.00;;;11.60;54.90;;;;;;5030288;28;20419;-48
2023/02/22 01:04:40;;;;;;;7.43;5.63;;;11.60;55.00;;;;;;5030270;28;20185;-49
2023/02/22 01:07:06;;;;;;;7.83;5.60;;;11.50;55.00;;;;;;5028540;28;20843;-49
2023/02/22 01:09:31;;;;;;;11.63;6.23;;;11.50;55.20;;;;;;5030308;28;20232;-52
2023/02/22 01:11:57;;;;;;;9.37;6.53;;;11.40;55.50;;;;;;5030396;28;20456;-48
2023/02/22 01:14:25;;;;;;;11.10;7.60;;;11.30;55.90;;;;;;5030257;28;20221;-48
2023/02/22 01:16:53;;;;;;;7.77;6.47;;;11.10;56.50;;;;;;5030510;28;20570;-49
2023/02/22 01:19:19;;;;;;;7.30;5.70;;;10.90;57.50;;;;;;5029666;28;20428;-48
2023/02/22 01:21:45;;;;;;;9.23;6.83;;;10.70;58.20;;;;;;5030762;28;20416;-48
2023/02/22 01:24:14;;;;;;;7.13;5.50;;;10.50;58.70;;;;;;5029983;28;20451;-48
2023/02/22 01:26:48;;;;;;;7.63;6.30;;;10.30;59.30;;;;;;5029942;28;20928;-48
2023/02/22 01:29:16;;;;;;;10.77;6.33;;;10.40;59.30;;;;;;5029527;28;20446;-48
2023/02/22 01:31:45;;;;;;;9.10;5.90;;;10.20;59.20;;;;;;5029968;28;20471;-48
2023/02/22 01:34:11;;;;;;;6.93;6.10;;;10.20;59.50;;;;;;5039975;28;20928;-48
2023/02/22 01:36:38;;;;;;;6.50;5.90;;;9.90;61.20;;;;;;5030210;28;20424;-49
2023/02/22 01:39:05;;;;;;;9.33;6.33;;;10.00;59.80;;;;;;5029614;28;20458;-48
2023/02/22 01:41:31;;;;;;;8.47;5.87;;;9.90;59.90;;;;;;5030214;28;20500;-48
2023/02/22 01:43:57;;;;;;;8.30;6.50;;;9.80;60.50;;;;;;5029994;28;20435;-48
2023/02/22 01:46:25;;;;;;;9.23;6.63;;;9.70;60.50;;;;;;5030265;28;20781;-49
2023/02/22 01:49:01;;;;;;;6.80;6.10;;;9.80;60.40;;;;;;5029732;28;20185;-48
2023/02/22 01:51:36;;;;;;;9.13;5.87;;;10.00;59.40;;;;;;5030081;28;20447;-48
2023/02/22 01:54:23;;;;;;;6.87;6.17;;;10.10;59.00;;;;;;5029719;28;20516;-48
2023/02/22 01:57:31;;;;;;;9.80;6.43;;;10.20;58.60;;;;;;5029729;28;20440;-48
2023/02/22 02:00:11;;;;;;;6.60;6.00;;;10.30;58.50;;;;;;5008535;28;20437;-49
2023/02/22 02:02:41;;;;;;;8.33;5.73;;;10.10;58.40;;;;;;5011539;28;20475;-48
2023/02/22 02:05:08;;;;;;;8.90;5.60;;;9.90;60.40;;;;;;5024983;28;20504;-48
2023/02/22 02:07:36;;;;;;;8.30;6.70;;;9.80;61.00;;;;;;5033348;28;20520;-49
2023/02/22 02:10:06;;;;;;;7.93;6.30;;;9.80;61.10;;;;;;5033370;28;20575;-49
2023/02/22 02:12:34;;;;;;;8.27;6.53;;;9.80;61.10;;;;;;5033441;28;21020;-48
2023/02/22 02:15:28;;;;;;;9.47;6.30;;;9.90;60.70;;;;;;5033255;28;21066;-48
2023/02/22 02:17:56;;;;;;;14.47;6.77;;;10.00;59.90;;;;;;5033018;28;20451;-48
2023/02/22 02:20:25;;;;;;;9.57;6.93;;;9.90;61.50;;;;;;5033428;28;20555;-48
2023/02/22 02:23:17;;;;;;;8.57;6.70;;;9.90;61.60;;;;;;5033413;28;20486;-52
2023/02/22 02:25:54;;;;;;;6.93;6.30;;;10.00;60.70;;;;;;5021789;28;20462;-48
2023/02/22 02:28:35;;;;;;;7.37;6.60;;;9.90;62.10;;;;;;5031420;28;20511;-48
2023/02/22 02:31:26;;;;;;;12.33;8.43;;;9.80;62.70;;;;;;5032925;28;20483;-48
2023/02/22 02:34:15;;;;;;;8.90;6.53;;;9.80;62.30;;;;;;5044243;28;20955;-48
2023/02/22 02:37:02;;;;;;;7.90;6.63;;;9.70;62.30;;;;;;5033019;28;20450;-48
2023/02/22 02:39:39;;;;;;;9.07;6.30;;;9.90;61.50;;;;;;5033072;28;20435;-48
2023/02/22 02:42:09;;;;;;;9.60;6.40;;;9.90;60.90;;;;;;5032834;28;20787;-49
2023/02/22 02:44:41;;;;;;;10.87;7.20;;;9.70;61.60;;;;;;5032867;28;20424;-48
2023/02/22 02:47:18;;;;;;;8.97;5.80;;;9.70;62.10;;;;;;5032379;28;20510;-49
2023/02/22 02:50:02;;;;;;;9.17;6.13;;;9.90;61.90;;;;;;5033044;28;20439;-49
2023/02/22 02:52:31;;;;;;;10.53;6.60;;;9.80;62.00;;;;;;5032690;28;20939;-48
2023/02/22 02:54:58;;;;;;;8.70;6.77;;;9.80;62.20;;;;;;5030984;28;20518;-48
2023/02/22 02:57:24;;;;;;;12.30;6.57;;;9.70;62.30;;;;;;5032310;28;20470;-48
2023/02/22 02:59:50;;;;;;;8.27;6.07;;;9.60;62.90;;;;;;5032491;28;20428;-48
2023/02/22 03:02:43;;;;;;;9.13;7.00;;;9.70;63.10;;;;;;5032439;28;20276;-48
2023/02/22 03:05:17;;;;;;;9.60;6.77;;;9.80;62.90;;;;;;5032776;28;20812;-48
2023/02/22 03:08:11;;;;;;;7.20;6.50;;;10.10;60.70;;;;;;5032299;28;20431;-48
2023/02/22 03:10:50;;;;;;;8.23;5.90;;;10.20;59.90;;;;;;5031399;28;21037;-49
2023/02/22 03:13:28;;;;;;;7.37;6.67;;;10.30;59.60;;;;;;5032087;28;20446;-51
2023/02/22 03:16:21;;;;;;;12.80;6.67;;;10.50;59.30;;;;;;5032326;28;20448;-49
2023/02/22 03:18:46;;;;;;;8.67;6.67;;;10.40;58.90;;;;;;5031962;28;20479;-48
2023/02/22 03:21:22;;;;;;;8.60;6.53;;;10.20;59.00;;;;;;5030599;28;20850;-48
2023/02/22 03:24:05;;;;;;;13.80;6.43;;;10.00;59.40;;;;;;5032259;28;20552;-48
2023/02/22 03:26:47;;;;;;;7.13;6.37;;;9.80;61.70;;;;;;5032215;28;20432;-48
2023/02/22 03:29:16;;;;;;;8.80;6.60;;;9.60;62.20;;;;;;5032160;28;20427;-48
2023/02/22 03:32:00;;;;;;;8.43;7.10;;;9.60;62.30;;;;;;5032177;28;20475;-48
2023/02/22 03:34:39;;;;;;;8.00;6.47;;;9.50;62.60;;;;;;5042896;28;20479;-48
2023/02/22 03:37:13;;;;;;;6.97;5.50;;;9.40;63.30;;;;;;5031497;28;20819;-48
2023/02/22 03:39:40;;;;;;;10.73;6.97;;;9.40;63.30;;;;;;5032050;28;20428;-48
2023/02/22 03:42:13;;;;;;;7.97;6.37;;;9.50;63.30;;;;;;5031650;28;20424;-48
2023/02/22 03:44:42;;;;;;;11.17;7.03;;;9.50;62.70;;;;;;5031704;28;20423;-48
2023/02/22 03:47:15;;;;;;;14.70;6.83;;;9.50;63.50;;;;;;5031264;28;20464;-48
2023/02/22 03:49:56;;;;;;;8.93;7.20;;;9.40;63.00;;;;;;5029984;28;20446;-49
2023/02/22 03:52:22;;;;;;;8.13;6.27;;;9.50;62.80;;;;;;5031700;28;20470;-48
2023/02/22 03:54:52;;;;;;;11.13;7.03;;;9.30;63.10;;;;;;5031302;28;20487;-48
2023/02/22 03:57:37;;;;;;;7.20;6.30;;;9.40;62.80;;;;;;5031368;28;20428;-49
2023/02/22 04:00:16;;;;;;;8.87;6.40;;;9.30;63.10;;;;;;5031525;28;20447;-48
2023/02/22 04:02:41;;;;;;;7.27;6.37;;;9.30;63.20;;;;;;5031414;28;20424;-48
2023/02/22 04:05:07;;;;;;;7.93;7.10;;;9.10;63.90;;;;;;5031158;28;20442;-48
2023/02/22 04:07:33;;;;;;;7.73;6.80;;;9.00;64.50;;;;;;5030820;28;20331;-48
2023/02/22 04:10:01;;;;;;;9.20;7.40;;;8.90;65.20;;;;;;5031283;28;20503;-51
2023/02/22 04:12:27;;;;;;;10.23;7.37;;;9.00;65.20;;;;;;5031359;28;20572;-47
2023/02/22 04:14:52;;;;;;;9.03;6.87;;;9.00;64.80;;;;;;5029336;28;20483;-49
2023/02/22 04:17:18;;;;;;;7.60;6.23;;;9.10;64.30;;;;;;5031034;28;20589;-47
2023/02/22 04:19:44;;;;;;;10.33;6.60;;;9.20;64.50;;;;;;5031174;28;20208;-48
2023/02/22 04:22:10;;;;;;;10.00;6.33;;;9.10;64.10;;;;;;5030993;28;20201;-48
2023/02/22 04:24:36;;;;;;;7.93;6.90;;;8.90;64.40;;;;;;5031097;28;20428;-50
2023/02/22 04:27:02;;;;;;;10.23;7.60;;;8.70;65.20;;;;;;5030900;28;20427;-48
2023/02/22 04:29:28;;;;;;;9.77;7.37;;;8.70;65.60;;;;;;5030643;28;20276;-49
2023/02/22 04:31:54;;;;;;;11.00;7.13;;;8.60;66.50;;;;;;5030869;28;20803;-48
2023/02/22 04:34:20;;;;;;;10.00;7.40;;;8.50;66.50;;;;;;5042113;28;20479;-48
2023/02/22 04:36:45;;;;;;;7.67;6.90;;;8.50;66.20;;;;;;5030500;28;20193;-48
2023/02/22 04:39:11;;;;;;;9.23;7.30;;;8.50;66.80;;;;;;5030514;28;20661;-49
2023/02/22 04:41:37;;;;;;;9.63;6.47;;;8.60;66.20;;;;;;5029410;28;20193;-50
2023/02/22 04:44:02;;;;;;;13.80;7.30;;;8.70;66.20;;;;;;5030637;28;20200;-48
2023/02/22 04:46:28;;;;;;;10.20;6.83;;;8.70;65.80;;;;;;5030658;28;20185;-49
2023/02/22 04:48:54;;;;;;;8.13;7.17;;;8.70;65.50;;;;;;5030385;28;20247;-48
2023/02/22 04:51:19;;;;;;;8.07;6.03;;;8.90;64.60;;;;;;5030442;28;20284;-49
2023/02/22 04:53:45;;;;;;;7.77;5.90;;;8.90;64.40;;;;;;5030280;28;20284;-48
2023/02/22 04:56:11;;;;;;;8.80;7.33;;;8.80;64.10;;;;;;5030416;28;20197;-49
2023/02/22 04:58:37;;;;;;;8.27;7.07;;;8.90;63.90;;;;;;5030143;28;20201;-48
2023/02/22 05:01:02;;;;;;;7.50;6.33;;;8.90;63.70;;;;;;5030579;28;20193;-49
2023/02/22 05:03:28;;;;;;;8.80;6.50;;;8.80;64.30;;;;;;5030377;28;20189;-48
2023/02/22 05:05:54;;;;;;;7.80;6.90;;;8.80;64.00;;;;;;5030316;28;20683;-48
2023/02/22 05:08:19;;;;;;;9.97;7.10;;;8.80;63.80;;;;;;5029535;28;20190;-49
2023/02/22 05:10:45;;;;;;;7.63;6.37;;;8.80;63.60;;;;;;5029718;28;20220;-48
2023/02/22 05:13:11;;;;;;;9.50;6.60;;;8.70;63.50;;;;;;5030309;28;20280;-49
2023/02/22 05:15:36;;;;;;;10.23;6.77;;;8.70;63.30;;;;;;5030260;28;20229;-48
2023/02/22 05:18:02;;;;;;;8.40;6.77;;;8.80;63.50;;;;;;5029864;28;20186;-48
2023/02/22 05:20:33;;;;;;;8.20;6.03;;;8.90;63.20;;;;;;5030352;28;20189;-48
2023/02/22 05:23:00;;;;;;;8.63;7.63;;;8.70;63.30;;;;;;5030166;28;20193;-48
2023/02/22 05:25:26;;;;;;;11.13;7.00;;;8.80;63.20;;;;;;5030079;28;20495;-50
2023/02/22 05:27:58;;;;;;;9.60;6.87;;;8.90;62.90;;;;;;5029915;28;20428;-48
2023/02/22 05:30:30;;;;;;;8.00;6.17;;;9.00;62.20;;;;;;5030080;28;20826;-49
2023/02/22 05:32:55;;;;;;;7.70;6.23;;;8.80;62.80;;;;;;5035893;28;20430;-49
2023/02/22 05:35:22;;;;;;;10.17;6.90;;;8.90;62.80;;;;;;5037231;28;20480;-51
2023/02/22 05:37:49;;;;;;;9.13;6.30;;;8.70;62.50;;;;;;5033291;28;20197;-48
2023/02/22 05:40:20;;;;;;;8.00;6.60;;;8.90;62.70;;;;;;5033911;28;20443;-48
2023/02/22 05:42:46;;;;;;;9.03;6.90;;;9.00;62.00;;;;;;5034161;28;20424;-50
2023/02/22 05:45:13;;;;;;;7.57;5.67;;;9.10;61.70;;;;;;5033879;28;20473;-48
2023/02/22 05:47:39;;;;;;;9.70;6.57;;;9.10;61.30;;;;;;5033438;28;20771;-48
2023/02/22 05:50:05;;;;;;;10.33;6.03;;;9.00;61.10;;;;;;5033809;28;20430;-48
2023/02/22 05:52:31;;;;;;;6.67;5.97;;;9.00;61.40;;;;;;5034048;28;20243;-52
2023/02/22 05:54:56;;;;;;;8.87;6.93;;;8.90;61.50;;;;;;5033630;28;20873;-52
2023/02/22 05:57:22;;;;;;;10.37;7.40;;;8.80;62.00;;;;;;5033251;28;20197;-51
2023/02/22 05:59:48;;;;;;;9.27;6.40;;;8.80;62.20;;;;;;5033399;28;20201;-52
2023/02/22 06:02:14;;;;;;;9.03;6.83;;;8.70;62.70;;;;;;5032772;28;20185;-53
2023/02/22 06:04:42;;;;;;;11.57;9.03;;;8.70;62.60;;;;;;5032889;28;20431;-52
2023/02/22 06:07:08;;;;;;;10.40;5.97;;;8.70;63.00;;;;;;5033245;28;20189;-52
2023/02/22 06:09:33;;;;;;;9.50;6.87;;;8.80;63.00;;;;;;5033501;28;20454;-51
2023/02/22 06:11:59;;;;;;;8.03;6.50;;;8.70;62.60;;;;;;5033566;28;20208;-49
2023/02/22 06:14:24;;;;;;;12.77;6.73;;;8.90;62.50;;;;;;5033709;28;20228;-52
2023/02/22 06:16:55;;;;;;;7.63;6.23;;;8.80;62.60;;;;;;5033321;28;20197;-48
2023/02/22 06:19:20;;;;;;;9.00;6.23;;;8.60;63.10;;;;;;5033427;28;20201;-47
2023/02/22 06:22:04;;;;;;;9.07;7.17;;;8.60;63.60;;;;;;5033234;28;20425;-49
2023/02/22 06:24:30;;;;;;;10.10;7.03;;;8.50;64.10;;;;;;5033517;28;20204;-48
2023/02/22 06:26:57;;;;;;;10.03;6.80;;;8.40;64.70;;;;;;5032825;28;20424;-52
2023/02/22 06:29:24;;;;;;;9.93;6.97;;;8.20;65.70;;;;;;5031616;28;20197;-52
2023/02/22 06:31:49;;;;;;;7.13;6.20;;;8.20;66.00;;;;;;5033116;28;20459;-49
2023/02/22 06:34:15;;;;;;;9.00;7.17;;;8.30;65.70;;;;;;5044516;28;20513;-52
2023/02/22 06:36:41;;;;;;;7.33;6.60;;;8.20;65.90;;;;;;5032706;28;20198;-52
2023/02/22 06:39:09;;;;;;;7.17;6.40;;;8.30;66.00;;;;;;5032935;28;20201;-52
2023/02/22 06:41:39;;;;;;;6.70;6.10;;;8.20;66.50;;;;;;5032982;28;20201;-52
2023/02/22 06:44:04;;;;;;;10.70;7.47;;;8.30;66.10;;;;;;5032812;28;21009;-53
2023/02/22 06:46:30;;;;;;;9.07;6.57;;;8.40;66.10;;;;;;5031058;28;20464;-51
2023/02/22 06:48:58;;;;;;;8.30;6.40;;;8.40;66.20;;;;;;5032617;28;20561;-49
2023/02/22 06:51:24;;;;;;;7.70;6.10;;;8.40;66.20;;;;;;5032987;28;20196;-52
2023/02/22 06:53:50;;;;;;;7.30;6.60;;;8.50;66.10;;;;;;5032666;28;20490;-52
2023/02/22 06:56:16;;;;;;;8.33;6.50;;;8.70;65.60;;;;;;5031061;28;20494;-52
2023/02/22 06:58:42;;;;;;;10.30;6.57;;;9.00;65.00;;;;;;5032207;28;20197;-52
2023/02/22 07:01:07;;;;;;;10.33;7.03;;;9.40;64.10;;;;;;5032688;28;20424;-52
2023/02/22 07:03:34;;;;;;;9.70;7.10;;;9.50;63.40;;;;;;5032371;28;20189;-51
2023/02/22 07:06:01;;;;;;;12.33;7.77;;;9.70;62.40;;;;;;5032295;28;20203;-53
2023/02/22 07:08:27;;;;;;;9.30;7.43;;;9.90;61.30;;;;;;5032084;28;20416;-49
2023/02/22 07:10:52;;;;;;;8.43;7.30;;;10.00;59.60;;;;;;5032479;28;20420;-52
2023/02/22 07:13:18;;;;;;;12.77;7.70;;;10.20;59.30;;;;;;5030951;28;20478;-52
2023/02/22 07:15:44;;;;;;;9.57;7.20;;;10.40;59.20;;;;;;5032545;28;20229;-51
2023/02/22 07:18:10;;;;;;;8.63;6.80;;;10.60;58.60;;;;;;5031862;28;20185;-48
2023/02/22 07:20:36;;;;;;;8.60;6.90;;;10.70;57.90;;;;;;5032221;28;20280;-52
2023/02/22 07:23:03;;;;;;;9.87;7.00;;;10.50;58.10;;;;;;5031228;28;20866;-52
2023/02/22 07:25:28;;;;;;;11.20;6.87;;;10.50;58.70;;;;;;5031823;28;20196;-50
2023/02/22 07:27:54;;;;;;;8.80;6.10;;;10.70;58.60;;;;;;5031680;28;20420;-52
2023/02/22 07:30:26;;;;;;;7.33;6.53;;;10.90;58.10;;;;;;5031930;28;20260;-52
2023/02/22 07:32:53;;;;;;;12.20;7.13;;;11.20;57.80;;;;;;5037182;28;20278;-52
2023/02/22 07:35:22;;;;;;;8.30;6.50;;;11.50;57.30;;;;;;5037667;28;20484;-52
2023/02/22 07:37:48;;;;;;;9.03;6.50;;;11.70;56.90;;;;;;5031310;28;20435;-52
2023/02/22 07:40:16;;;;;;;8.23;6.50;;;12.00;56.40;;;;;;5031787;28;20462;-49
2023/02/22 07:42:59;;;;;;;9.87;7.77;;;12.30;55.70;;;;;;5030552;28;20247;-51
2023/02/22 07:45:31;;;;;;;8.17;7.00;;;12.60;54.90;;;;;;5031658;28;20535;-52
2023/02/22 07:47:58;;;;;;;9.23;6.60;;;12.80;54.20;;;;;;5031281;28;20432;-52
2023/02/22 07:50:26;;;;;;;10.43;6.97;;;13.00;53.60;;;;;;5029939;28;20431;-53
2023/02/22 07:52:54;;;;;;;9.27;6.80;;;13.20;53.20;;;;;;5031827;28;20498;-48
2023/02/22 07:55:24;;;;;;;25.10;8.50;;;13.30;52.60;;;;;;5031692;28;20483;-52
2023/02/22 07:57:52;;;;;;;8.00;6.00;;;13.40;52.40;;;;;;5031054;28;20427;-49
2023/02/22 08:00:26;;;;;;;10.00;6.77;;;13.40;52.10;;;;;;5031206;28;20714;-51
2023/02/22 08:02:52;;;;;;;9.37;7.90;;;13.40;52.20;;;;;;5031417;28;20486;-52
2023/02/22 08:05:19;;;;;;;8.57;7.10;;;13.50;52.40;;;;;;5031115;28;20482;-52
2023/02/22 08:07:45;;;;;;;10.23;7.23;;;13.50;52.30;;;;;;5030722;28;20438;-52
2023/02/22 08:10:13;;;;;;;11.77;8.20;;;13.60;52.40;;;;;;5031410;28;20519;-50
2023/02/22 08:12:38;;;;;;;8.10;6.60;;;13.70;52.20;;;;;;5031303;28;20230;-53
2023/02/22 08:15:08;;;;;;;11.73;8.77;;;13.80;52.10;;;;;;5031104;28;20483;-49
2023/02/22 08:17:33;;;;;;;8.90;7.30;;;13.90;51.90;;;;;;5028810;28;20653;-49
2023/02/22 08:19:59;;;;;;;10.53;7.63;;;14.00;51.70;;;;;;5031089;28;20443;-50
2023/02/22 08:22:27;;;;;;;14.63;8.53;;;14.10;51.60;;;;;;5030720;28;20189;-51
2023/02/22 08:24:53;;;;;;;10.93;8.00;;;14.10;51.70;;;;;;5030878;28;20954;-52
2023/02/22 08:27:24;;;;;;;15.73;7.90;;;14.20;52.20;;;;;;5030298;28;20433;-52
2023/02/22 08:29:50;;;;;;;9.13;7.17;;;14.20;51.90;;;;;;5030719;28;20227;-49
2023/02/22 08:32:15;;;;;;;11.47;7.97;;;14.30;51.50;;;;;;5030808;28;20915;-49
2023/02/22 08:34:42;;;;;;;13.63;8.10;;;14.40;51.80;;;;;;5041931;28;20483;-52
2023/02/22 08:37:08;;;;;;;10.03;7.70;;;14.50;52.10;;;;;;5030415;28;20252;-53
2023/02/22 08:39:34;;;;;;;10.33;7.90;;;14.50;51.90;;;;;;5030490;28;20456;-49
2023/02/22 08:41:59;;;;;;;10.10;7.30;;;14.60;51.80;;;;;;5030812;28;20204;-49
2023/02/22 08:44:25;;;;;;;9.13;7.43;;;14.60;51.90;;;;;;5028951;28;20637;-50
2023/02/22 08:46:51;;;;;;;8.87;7.00;;;14.60;51.70;;;;;;5030293;28;20268;-52
2023/02/22 08:49:17;;;;;;;7.57;6.73;;;14.60;51.80;;;;;;5030424;28;20285;-52
2023/02/22 08:51:42;;;;;;;10.20;7.77;;;14.60;51.80;;;;;;5030661;28;20251;-49
2023/02/22 08:54:08;;;;;;;8.10;7.27;;;14.60;51.70;;;;;;5030470;28;20325;-52
2023/02/22 08:56:34;;;;;;;8.47;7.13;;;14.60;51.80;;;;;;5030015;28;20212;-52
2023/02/22 08:58:59;;;;;;;12.97;9.30;;;14.50;51.50;;;;;;5030459;28;20275;-52
2023/02/22 09:01:26;;;;;;;8.70;6.90;;;14.50;51.30;;;;;;5030226;28;20247;-49
2023/02/22 09:03:52;;;;;;;9.83;6.77;;;14.60;50.70;;;;;;5030247;28;20193;-51
2023/02/22 09:06:18;;;;;;;10.77;7.17;;;14.80;50.40;;;;;;5028507;28;20455;-49
2023/02/22 09:08:43;;;;;;;10.83;7.50;;;14.90;50.60;;;;;;5029437;28;20193;-50
2023/02/22 09:11:09;;;;;;;8.30;6.80;;;15.00;50.10;;;;;;5028462;28;20193;-51
2023/02/22 09:13:34;;;;;;;10.17;7.43;;;15.10;50.60;;;;;;5030368;28;20266;-49
2023/02/22 09:16:00;;;;;;;11.23;7.30;;;15.20;50.00;;;;;;5029997;28;20257;-49
2023/02/22 09:18:27;;;;;;;9.33;7.70;;;15.30;48.80;;;;;;5029695;28;20620;-49
2023/02/22 09:20:53;;;;;;;7.60;6.80;;;15.30;48.60;;;;;;5030113;28;20185;-52
2023/02/22 09:23:20;;;;;;;12.50;7.83;;;15.40;48.60;;;;;;5030153;28;20796;-51
2023/02/22 09:25:49;;;;;;;9.23;7.40;;;15.50;48.50;;;;;;5030329;28;20208;-48
2023/02/22 09:28:15;;;;;;;9.93;8.53;;;15.70;48.10;;;;;;5029683;28;20448;-52
2023/02/22 09:30:41;;;;;;;8.73;7.47;;;15.50;48.00;;;;;;5029695;28;20463;-50
2023/02/22 09:33:13;;;;;;;9.10;7.30;;;15.70;48.20;;;;;;5037518;28;20220;-50
2023/02/22 09:35:46;;;;;;;12.10;7.97;;;15.80;48.30;;;;;;5033053;28;20523;-49
2023/02/22 09:38:21;;;;;;;9.60;7.00;;;15.80;48.30;;;;;;5028137;28;20881;-49
2023/02/22 09:41:15;;;;;;;8.90;8.00;;;15.80;48.90;;;;;;5030056;28;20923;-49
2023/02/22 09:43:52;;;;;;;14.03;7.00;;;15.70;48.90;;;;;;5029682;28;20448;-49
2023/02/22 09:46:34;;;;;;;9.27;8.07;;;15.60;49.30;;;;;;5029300;28;20430;-49
2023/02/22 09:49:14;;;;;;;9.67;8.50;;;15.90;49.10;;;;;;5029768;28;20435;-50
2023/02/22 09:52:04;;;;;;;12.13;8.17;;;16.00;48.80;;;;;;5029952;28;20428;-51
2023/02/22 09:54:36;;;;;;;11.93;7.67;;;16.10;48.90;;;;;;5029939;28;20460;-52
2023/02/22 09:57:07;;;;;;;10.00;8.77;;;16.10;48.60;;;;;;5029389;28;20447;-49
2023/02/22 09:59:41;;;;;;;9.50;8.50;;;16.20;48.20;;;;;;5029765;28;20431;-51
2023/02/22 10:02:27;;;;;;;9.60;8.30;;;16.30;47.60;;;;;;5029657;28;20918;-50
2023/02/22 10:05:08;;;;;;;10.87;8.47;;;16.40;47.50;;;;;;5027994;28;20420;-50
2023/02/22 10:07:43;;;;;;;9.67;7.13;;;16.50;47.30;;;;;;5029482;28;20815;-52
2023/02/22 10:10:18;;;;;;;13.23;8.17;;;16.50;47.00;;;;;;5029596;28;20503;-50
2023/02/22 10:12:46;;;;;;;11.90;8.53;;;16.60;46.90;;;;;;5029443;28;20428;-50
2023/02/22 10:15:27;;;;;;;8.43;7.50;;;16.60;46.80;;;;;;5029987;28;20563;-50
2023/02/22 10:17:55;;;;;;;11.43;8.40;;;16.70;46.70;;;;;;5029356;28;20771;-49
2023/02/22 10:20:43;;;;;;;10.40;7.70;;;16.90;46.50;;;;;;5030927;28;20877;-53
2023/02/22 10:23:23;;;;;;;12.13;7.90;;;17.00;46.40;;;;;;5033106;28;20424;-49
2023/02/22 10:25:56;;;;;;;11.90;8.87;;;17.20;46.20;;;;;;5032911;28;20460;-50
2023/02/22 10:28:36;;;;;;;10.00;8.83;;;17.40;46.30;;;;;;5032652;28;20444;-51
2023/02/22 10:31:07;;;;;;;11.10;8.60;;;17.70;46.20;;;;;;5032649;28;20872;-52
2023/02/22 10:33:40;;;;;;;13.83;8.77;;;17.70;45.50;;;;;;5041837;28;20953;-50
2023/02/22 10:36:21;;;;;;;8.93;8.00;;;17.80;45.70;;;;;;5019637;28;20483;-52
2023/02/22 10:38:54;;;;;;;9.30;7.83;;;18.00;45.40;;;;;;5032643;28;20448;-49
2023/02/22 10:41:37;;;;;;;11.23;7.90;;;18.00;45.40;;;;;;5033447;28;20423;-49
2023/02/22 10:44:03;;;;;;;10.43;9.37;;;18.20;46.20;;;;;;5032637;28;20541;-49
2023/02/22 10:46:30;;;;;;;11.00;9.07;;;18.50;45.60;;;;;;5032444;28;20520;-49
2023/02/22 10:49:03;;;;;;;9.90;8.30;;;18.50;44.30;;;;;;5032695;28;20196;-51
2023/02/22 10:51:29;;;;;;;15.93;9.30;;;17.90;45.60;;;;;;5032630;28;20904;-49
2023/02/22 10:54:14;;;;;;;11.43;8.13;;;18.00;46.00;;;;;;5031318;28;20595;-50
2023/02/22 10:56:51;;;;;;;10.93;8.80;;;18.60;45.80;;;;;;5032206;28;20443;-50
2023/02/22 10:59:45;;;;;;;8.77;7.87;;;19.00;45.10;;;;;;5031002;28;20481;-49
2023/02/22 11:02:14;;;;;;;10.67;8.93;;;19.40;44.00;;;;;;5027652;28;20950;-50
2023/02/22 11:04:51;;;;;;;10.03;7.93;;;19.60;43.00;;;;;;5032624;28;20970;-50
2023/02/22 11:07:32;;;;;;;10.33;8.87;;;19.70;43.20;;;;;;5032090;28;20582;-49
2023/02/22 11:09:59;;;;;;;9.63;8.33;;;19.90;43.40;;;;;;5032210;28;20852;-49
2023/02/22 11:12:25;;;;;;;12.20;8.40;;;19.90;42.20;;;;;;5032380;28;20420;-51
2023/02/22 11:14:51;;;;;;;11.00;7.83;;;19.90;42.50;;;;;;5032092;28;21005;-50
2023/02/22 11:17:29;;;;;;;9.57;8.30;;;20.00;42.40;;;;;;5031668;28;20200;-49
2023/02/22 11:19:56;;;;;;;8.30;7.40;;;20.10;42.40;;;;;;5032156;28;20606;-51
2023/02/22 11:22:39;;;;;;;13.97;10.03;;;20.10;41.70;;;;;;5032045;28;20714;-52
2023/02/22 11:25:06;;;;;;;12.17;8.77;;;20.30;41.70;;;;;;5032075;28;20447;-49
2023/02/22 11:27:39;;;;;;;8.23;6.93;;;20.40;41.80;;;;;;5029778;28;20485;-49
2023/02/22 11:30:29;;;;;;;11.50;9.47;;;20.40;41.10;;;;;;5031943;28;20923;-49
2023/02/22 11:33:05;;;;;;;10.93;7.50;;;20.50;41.40;;;;;;5036663;28;20454;-51
2023/02/22 11:35:47;;;;;;;9.77;7.00;;;20.30;41.20;;;;;;5036072;28;20572;-49
2023/02/22 11:38:21;;;;;;;9.07;8.17;;;20.40;41.50;;;;;;5031102;28;20435;-49
2023/02/22 11:41:14;;;;;;;9.37;8.40;;;20.50;41.10;;;;;;5031550;28;20927;-50
2023/02/22 11:43:47;;;;;;;11.17;7.80;;;20.60;41.10;;;;;;5031601;28;20432;-49
2023/02/22 11:46:18;;;;;;;13.70;8.33;;;20.60;40.90;;;;;;5031318;28;20432;-50
2023/02/22 11:48:55;;;;;;;11.37;7.90;;;20.60;41.10;;;;;;5031570;28;20795;-49
2023/02/22 11:51:46;;;;;;;9.03;8.13;;;20.60;41.10;;;;;;5031791;28;20431;-49
2023/02/22 11:54:27;;;;;;;17.93;8.60;;;20.50;40.80;;;;;;5029740;28;20480;-49
2023/02/22 11:57:07;;;;;;;12.27;8.73;;;20.50;40.50;;;;;;5031124;28;20448;-49
2023/02/22 11:59:51;;;;;;;12.20;8.70;;;20.50;40.90;;;;;;5031418;28;20436;-49
2023/02/22 12:02:29;;;;;;;9.40;8.50;;;20.60;41.00;;;;;;5031602;28;20519;-49
2023/02/22 12:05:07;;;;;;;10.60;9.50;;;20.60;40.40;;;;;;5031214;28;20984;-50
2023/02/22 12:07:47;;;;;;;14.33;9.03;;;20.60;40.10;;;;;;5030930;28;20432;-49
2023/02/22 12:10:46;;;;;;;13.60;9.63;;;20.60;40.40;;;;;;5031234;28;20435;-49
2023/02/22 12:13:20;;;;;;;9.60;8.60;;;20.50;40.50;;;;;;5031054;28;20432;-50
2023/02/22 12:15:46;;;;;;;10.03;8.90;;;20.50;40.10;;;;;;5030868;28;21261;-49
2023/02/22 12:18:55;;;;;;;9.73;8.73;;;20.50;40.20;;;;;;5030880;28;20462;-49
2023/02/22 12:21:23;;;;;;;13.20;8.63;;;20.50;40.50;;;;;;5011929;28;20216;-50
2023/02/22 12:24:06;;;;;;;12.60;9.90;;;20.50;40.00;;;;;;5030796;28;20436;-49
2023/02/22 12:26:54;;;;;;;12.10;9.90;;;20.50;40.40;;;;;;5030373;28;20531;-49
2023/02/22 12:29:25;;;;;;;11.33;8.83;;;20.40;40.50;;;;;;5030850;28;20507;-49
2023/02/22 12:31:59;;;;;;;10.80;8.43;;;20.30;40.80;;;;;;5030883;28;20579;-49
2023/02/22 12:34:31;;;;;;;10.97;8.50;;;20.30;41.00;;;;;;5041676;28;20497;-52
2023/02/22 12:37:28;;;;;;;9.70;8.47;;;20.40;40.70;;;;;;5030249;28;20458;-49
2023/02/22 12:40:09;;;;;;;9.50;7.70;;;20.30;40.70;;;;;;5028901;28;20494;-50
2023/02/22 12:42:54;;;;;;;11.73;9.03;;;20.30;40.80;;;;;;5030503;28;20486;-49
2023/02/22 12:45:38;;;;;;;9.97;7.50;;;20.50;41.10;;;;;;5031002;28;20903;-48
2023/02/22 12:49:01;;;;;;;10.13;9.20;;;20.50;40.80;;;;;;5028345;28;20898;-49
2023/02/22 12:51:40;;;;;;;10.50;8.63;;;20.50;41.40;;;;;;5018187;28;20447;-49
2023/02/22 12:54:13;;;;;;;10.97;9.03;;;20.50;41.90;;;;;;5030325;28;20436;-49
2023/02/22 12:56:49;;;;;;;9.93;8.10;;;20.50;41.00;;;;;;5030134;28;20447;-51
2023/02/22 12:59:39;;;;;;;10.27;7.80;;;20.50;41.20;;;;;;5030789;28;20993;-49
2023/02/22 13:02:19;;;;;;;10.13;9.13;;;20.40;40.00;;;;;;5030376;28;20436;-49
2023/02/22 13:04:45;;;;;;;10.23;8.07;;;20.40;40.20;;;;;;5030558;28;20490;-50
2023/02/22 13:07:39;;;;;;;10.77;7.60;;;20.30;40.50;;;;;;5029984;28;20440;-49
2023/02/22 13:10:32;;;;;;;9.23;8.33;;;20.50;41.30;;;;;;5030133;28;20201;-49